createdAt,value
2023-05-04T00:01:45.397Z,101064.67
2023-05-04T00:04:50.964Z,101068.00
2023-05-04T00:07:55.981Z,101076.47
2023-05-04T00:11:03.183Z,101079.09
2023-05-04T00:14:08.957Z,101080.20
2023-05-04T00:17:14.686Z,101082.22
2023-05-04T00:20:21.963Z,101083.58
2023-05-04T00:23:20.906Z,101083.19
2023-05-04T00:26:26.681Z,101076.67
2023-05-04T00:29:33.352Z,101080.41
2023-05-04T00:32:39.217Z,101075.36
2023-05-04T00:35:44.940Z,101086.36
2023-05-04T00:39:05.072Z,101080.20
2023-05-04T00:42:10.142Z,101082.56
2023-05-04T00:45:15.550Z,101072.55
2023-05-04T00:48:21.539Z,101072.40
2023-05-04T00:51:27.486Z,101068.47
2023-05-04T00:54:33.683Z,101065.50
2023-05-04T00:57:40.068Z,101066.70
2023-05-04T01:00:39.938Z,101064.09
2023-05-04T01:03:45.891Z,101058.99
2023-05-04T01:07:02.650Z,101059.25
2023-05-04T01:10:30.435Z,101058.03
2023-05-04T01:13:37.099Z,101054.37
2023-05-04T01:16:43.948Z,101057.23
2023-05-04T01:19:50.096Z,101063.06
2023-05-04T01:22:57.118Z,101072.02
2023-05-04T01:26:23.484Z,101080.20
2023-05-04T01:29:33.795Z,101070.45
2023-05-04T01:32:39.469Z,101074.81
2023-05-04T01:35:45.752Z,101077.17
2023-05-04T01:38:51.789Z,101072.52
2023-05-04T01:41:57.810Z,101070.91
2023-05-04T01:45:04.344Z,101069.73
2023-05-04T01:48:10.530Z,101064.69
2023-05-04T01:51:16.583Z,101066.91
2023-05-04T01:54:22.717Z,101077.39
2023-05-04T01:57:28.557Z,101071.23
2023-05-04T02:00:35.843Z,101080.25
2023-05-04T02:03:41.799Z,101077.17
2023-05-04T02:06:47.116Z,101076.42
2023-05-04T02:09:52.102Z,101069.62
2023-05-04T02:12:57.489Z,101066.41
2023-05-04T02:16:03.578Z,101067.66
2023-05-04T02:19:09.865Z,101062.44
2023-05-04T02:22:15.365Z,101060.08
2023-05-04T02:25:23.245Z,101064.69
2023-05-04T02:28:28.366Z,101069.16
2023-05-04T02:31:34.424Z,101063.11
2023-05-04T02:34:41.865Z,101062.58
2023-05-04T02:37:47.170Z,101063.86
2023-05-04T02:40:52.949Z,101057.98
2023-05-04T02:43:58.819Z,101050.95
2023-05-04T02:47:04.137Z,101054.91
2023-05-04T02:50:10.191Z,101044.91
2023-05-04T02:53:15.878Z,101049.83
2023-05-04T02:56:21.027Z,101058.80
2023-05-04T02:59:26.641Z,101058.25
2023-05-04T03:02:31.481Z,101044.79
2023-05-04T03:05:36.359Z,101037.81
2023-05-04T03:08:42.814Z,101029.83
2023-05-04T03:11:42.047Z,101025.00
2023-05-04T03:14:28.484Z,101019.89
2023-05-04T03:17:22.765Z,101022.67
2023-05-04T03:20:09.710Z,101023.45
2023-05-04T03:23:02.616Z,101026.02
2023-05-04T03:25:56.165Z,101025.00
2023-05-04T03:29:03.241Z,101032.09
2023-05-04T03:32:11.267Z,101026.08
2023-05-04T03:35:24.107Z,101018.59
2023-05-04T03:38:23.862Z,101020.34
2023-05-04T03:41:29.412Z,101021.02
2023-05-04T03:44:34.742Z,101016.87
2023-05-04T03:47:40.735Z,101020.72
2023-05-04T03:50:45.782Z,101020.09
2023-05-04T03:53:50.894Z,101016.86
2023-05-04T03:56:58.962Z,101008.00
2023-05-04T04:00:05.982Z,101015.77
2023-05-04T04:03:17.493Z,101015.40
2023-05-04T04:06:24.710Z,101018.80
2023-05-04T04:09:29.835Z,101020.73
2023-05-04T04:12:34.694Z,101027.10
2023-05-04T04:15:42.829Z,101014.77
2023-05-04T04:18:48.426Z,101025.27
2023-05-04T04:21:54.839Z,101019.63
2023-05-04T04:25:00.953Z,101012.75
2023-05-04T04:28:06.821Z,101022.03
2023-05-04T04:31:12.813Z,101023.37
2023-05-04T04:34:18.738Z,101016.84
2023-05-04T04:37:24.741Z,101016.83
2023-05-04T04:40:31.185Z,101019.52
2023-05-04T04:43:37.952Z,101022.26
2023-05-04T04:46:43.411Z,101018.87
2023-05-04T04:49:50.208Z,101018.80
2023-05-04T04:52:56.608Z,101014.20
2023-05-04T04:56:02.110Z,101004.27
2023-05-04T04:59:08.712Z,101009.16
2023-05-04T05:02:16.698Z,101011.02
2023-05-04T05:05:23.281Z,101004.52
2023-05-04T05:08:29.100Z,101005.14
2023-05-04T05:11:34.809Z,100999.83
2023-05-04T05:14:42.404Z,101001.52
2023-05-04T05:17:48.177Z,101003.03
2023-05-04T05:20:53.976Z,101010.73
2023-05-04T05:23:58.622Z,101018.59
2023-05-04T05:27:04.475Z,101024.53
2023-05-04T05:30:10.033Z,101027.70
2023-05-04T05:33:15.726Z,101027.56
2023-05-04T05:36:21.811Z,101033.65
2023-05-04T05:39:27.337Z,101041.13
2023-05-04T05:42:31.989Z,101029.45
2023-05-04T05:45:37.679Z,101035.33
2023-05-04T05:48:42.637Z,101039.60
2023-05-04T05:51:48.278Z,101037.88
2023-05-04T05:54:53.179Z,101032.02
2023-05-04T05:58:00.180Z,101031.99
2023-05-04T06:01:06.634Z,101027.27
2023-05-04T06:04:11.439Z,101028.58
2023-05-04T06:07:17.020Z,101037.88
2023-05-04T06:10:23.534Z,101032.79
2023-05-04T06:13:29.437Z,101042.33
2023-05-04T06:16:34.937Z,101037.86
2023-05-04T06:19:40.464Z,101040.13
2023-05-04T06:22:46.067Z,101046.06
2023-05-04T06:25:51.785Z,101038.44
2023-05-04T06:28:58.328Z,101047.18
2023-05-04T06:32:06.446Z,101038.34
2023-05-04T06:35:19.189Z,101041.01
2023-05-04T06:38:25.412Z,101041.01
2023-05-04T06:41:31.044Z,101047.72
2023-05-04T06:44:36.801Z,101039.41
2023-05-04T06:47:41.706Z,101038.24
2023-05-04T06:50:47.886Z,101028.44
2023-05-04T06:53:54.095Z,101029.92
2023-05-04T06:57:00.529Z,101032.38
2023-05-04T07:00:07.394Z,101027.98
2023-05-04T07:03:13.208Z,101028.09
2023-05-04T07:06:18.127Z,101030.20
2023-05-04T07:09:24.557Z,101032.30
2023-05-04T07:12:25.165Z,101028.41
2023-05-04T07:15:31.258Z,101025.59
2023-05-04T07:18:38.172Z,101028.02
2023-05-04T07:21:43.056Z,101030.87
2023-05-04T07:24:47.878Z,101028.14
2023-05-04T07:27:53.329Z,101027.17
2023-05-04T07:31:01.274Z,101030.92
2023-05-04T07:34:07.497Z,101034.80
2023-05-04T07:37:12.805Z,101029.02
2023-05-04T07:40:22.900Z,101031.55
2023-05-04T07:43:28.422Z,101035.36
2023-05-04T07:46:36.363Z,101031.46
2023-05-04T07:49:42.132Z,101030.03
2023-05-04T07:52:47.971Z,101024.36
2023-05-04T07:55:53.967Z,101026.07
2023-05-04T07:59:00.148Z,101027.48
2023-05-04T08:02:04.845Z,101031.54
2023-05-04T08:05:10.644Z,101031.01
2023-05-04T08:08:16.719Z,101029.84
2023-05-04T08:11:24.033Z,101025.06
2023-05-04T08:14:30.411Z,101031.87
2023-05-04T08:17:36.474Z,101031.38
2023-05-04T08:20:41.317Z,101028.42
2023-05-04T08:23:48.020Z,101024.14
2023-05-04T08:27:06.548Z,101022.48
2023-05-04T08:30:00.252Z,101016.19
2023-05-04T08:33:06.529Z,101013.91
2023-05-04T08:36:11.716Z,101019.04
2023-05-04T08:39:09.995Z,101015.07
2023-05-04T08:41:56.206Z,101011.84
2023-05-04T08:44:55.417Z,101013.98
2023-05-04T08:48:01.496Z,101017.80
2023-05-04T08:51:06.288Z,101002.70
2023-05-04T08:54:11.924Z,101001.80
2023-05-04T08:57:18.606Z,100999.22
2023-05-04T09:00:26.413Z,101000.55
2023-05-04T09:03:27.371Z,101004.48
2023-05-04T09:06:36.958Z,101005.58
2023-05-04T09:09:42.760Z,101008.36
2023-05-04T09:12:50.005Z,100995.20
2023-05-04T09:15:56.285Z,100997.42
2023-05-04T09:19:02.319Z,100992.09
2023-05-04T09:22:07.676Z,100988.05
2023-05-04T09:25:27.205Z,100987.44
2023-05-04T09:28:32.579Z,100982.55
2023-05-04T09:31:38.952Z,100982.06
2023-05-04T09:34:38.649Z,100979.39
2023-05-04T09:37:45.060Z,100974.25
2023-05-04T09:40:55.549Z,100972.41
2023-05-04T09:44:02.120Z,100965.87
2023-05-04T09:47:10.380Z,100970.61
2023-05-04T09:50:32.193Z,100964.81
2023-05-04T09:53:39.034Z,100961.80
2023-05-04T09:57:03.776Z,100957.48
2023-05-04T10:00:11.475Z,100955.63
2023-05-04T10:03:19.278Z,100955.63
2023-05-04T10:06:17.914Z,100952.06
2023-05-04T10:09:25.101Z,100956.48
2023-05-04T10:12:30.963Z,100954.39
2023-05-04T10:15:37.792Z,100952.06
2023-05-04T10:18:57.657Z,100947.19
2023-05-04T10:22:49.013Z,100951.52
2023-05-04T10:26:14.154Z,100950.42
2023-05-04T10:29:41.047Z,100943.66
2023-05-04T10:32:47.363Z,100946.68
2023-05-04T10:35:55.024Z,100949.97
2023-05-04T10:39:00.287Z,100947.97
2023-05-04T10:42:19.909Z,100941.41
2023-05-04T10:45:25.932Z,100937.59
2023-05-04T10:48:30.644Z,100939.02
2023-05-04T10:51:48.615Z,100930.83
2023-05-04T10:54:46.874Z,100921.09
2023-05-04T10:58:09.649Z,100914.34
2023-05-04T11:01:15.898Z,100906.76
2023-05-04T11:04:21.633Z,100907.55
2023-05-04T11:07:27.504Z,100906.70
2023-05-04T11:10:38.542Z,100902.61
2023-05-04T11:13:51.255Z,100897.11
2023-05-04T11:16:57.056Z,100894.09
2023-05-04T11:20:03.949Z,100895.48
2023-05-04T11:23:09.161Z,100891.22
2023-05-04T11:26:21.442Z,100883.72
2023-05-04T11:29:27.758Z,100882.03
2023-05-04T11:32:34.510Z,100870.30
2023-05-04T11:35:40.325Z,100875.70
2023-05-04T11:38:47.386Z,100878.77
2023-05-04T11:41:52.798Z,100882.01
2023-05-04T11:44:59.579Z,100882.23
2023-05-04T11:48:05.127Z,100875.73
2023-05-04T11:51:11.478Z,100881.09
2023-05-04T11:54:17.218Z,100880.61
2023-05-04T11:57:22.457Z,100870.28
2023-05-04T12:00:29.282Z,100880.80
2023-05-04T12:03:53.885Z,100870.45
2023-05-04T12:06:54.162Z,100868.11
2023-05-04T12:10:01.368Z,100870.69
2023-05-04T12:13:06.743Z,100861.02
2023-05-04T12:16:15.967Z,100858.93
2023-05-04T12:19:25.680Z,100857.14
2023-05-04T12:22:31.213Z,100855.45
2023-05-04T12:25:47.353Z,100844.57
2023-05-04T12:28:44.825Z,100839.95
2023-05-04T12:31:51.567Z,100832.30
2023-05-04T12:34:57.375Z,100827.50
2023-05-04T12:38:02.772Z,100830.22
2023-05-04T12:41:10.276Z,100822.88
2023-05-04T12:44:17.818Z,100818.94
2023-05-04T12:47:24.406Z,100814.58
2023-05-04T12:50:29.841Z,100817.36
2023-05-04T12:53:38.229Z,100820.33
2023-05-04T12:56:46.718Z,100812.98
2023-05-04T12:59:52.619Z,100812.52
2023-05-04T13:02:59.242Z,100806.47
2023-05-04T13:06:06.664Z,100807.55
2023-05-04T13:09:13.875Z,100799.61
2023-05-04T13:12:19.446Z,100802.45
2023-05-04T13:15:20.423Z,100799.81
2023-05-04T13:18:26.149Z,100790.58
2023-05-04T13:21:31.812Z,100786.97
2023-05-04T13:24:36.566Z,100780.34
2023-05-04T13:27:41.977Z,100774.09
2023-05-04T13:30:47.411Z,100773.15
2023-05-04T13:33:53.142Z,100769.97
2023-05-04T13:36:59.071Z,100765.20
2023-05-04T13:40:06.341Z,100764.02
2023-05-04T13:43:12.045Z,100755.08
2023-05-04T13:46:14.695Z,100754.68
2023-05-04T13:49:20.195Z,100751.22
2023-05-04T13:55:12.658Z,100742.88
2023-05-04T13:58:18.850Z,100742.48
2023-05-04T14:01:24.177Z,100737.02
2023-05-04T14:04:30.476Z,100735.49
2023-05-04T14:07:36.191Z,100733.02
2023-05-04T14:10:41.856Z,100735.89
2023-05-04T14:13:49.603Z,100731.22
2023-05-04T14:16:55.828Z,100726.98
2023-05-04T14:20:01.665Z,100724.89
2023-05-04T14:23:07.262Z,100726.88
2023-05-04T14:26:13.059Z,100719.48
2023-05-04T14:29:21.422Z,100717.16
2023-05-04T14:32:28.362Z,100708.45
2023-05-04T14:35:34.942Z,100702.56
2023-05-04T14:38:42.024Z,100699.45
2023-05-04T14:41:48.585Z,100701.12
2023-05-04T14:44:47.465Z,100701.16
2023-05-04T14:47:40.971Z,100687.44
2023-05-04T14:50:45.964Z,100689.70
2023-05-04T14:53:55.174Z,100681.69
2023-05-04T14:57:01.761Z,100685.75
2023-05-04T15:00:08.005Z,100676.27
2023-05-04T15:03:14.110Z,100674.89
2023-05-04T15:06:20.495Z,100676.88
2023-05-04T15:09:21.078Z,100681.52
2023-05-04T15:12:27.542Z,100672.17
2023-05-04T15:15:32.364Z,100669.53
2023-05-04T15:18:39.559Z,100668.12
2023-05-04T15:21:45.133Z,100659.87
2023-05-04T15:24:50.521Z,100661.16
2023-05-04T15:27:55.884Z,100658.14
2023-05-04T15:31:01.653Z,100661.67
2023-05-04T15:34:08.416Z,100659.70
2023-05-04T15:37:18.793Z,100656.94
2023-05-04T15:40:20.838Z,100653.03
2023-05-04T15:43:27.389Z,100654.14
2023-05-04T15:46:32.351Z,100652.27
2023-05-04T15:49:39.240Z,100646.08
2023-05-04T15:52:44.888Z,100647.93
2023-05-04T15:55:51.482Z,100656.12
2023-05-04T15:58:57.828Z,100656.12
2023-05-04T16:02:06.737Z,100650.52
2023-05-04T16:05:16.383Z,100652.88
2023-05-04T16:08:21.586Z,100651.03
2023-05-04T16:11:29.557Z,100651.60
2023-05-04T16:14:39.982Z,100651.63
2023-05-04T16:17:45.955Z,100648.47
2023-05-04T16:20:51.440Z,100642.53
2023-05-04T16:23:58.643Z,100647.83
2023-05-04T16:27:04.508Z,100645.72
2023-05-04T16:30:10.379Z,100639.88
2023-05-04T16:33:19.951Z,100640.41
2023-05-04T16:36:25.494Z,100641.46
2023-05-04T16:39:32.916Z,100637.92
2023-05-04T16:42:38.700Z,100646.94
2023-05-04T16:45:43.725Z,100641.38
2023-05-04T16:48:51.821Z,100649.94
2023-05-04T16:51:59.880Z,100640.84
2023-05-04T16:55:05.726Z,100644.44
2023-05-04T16:58:12.247Z,100652.12
2023-05-04T17:01:18.083Z,100650.88
2023-05-04T17:04:25.537Z,100654.09
2023-05-04T17:07:31.299Z,100658.06
2023-05-04T17:10:37.711Z,100657.97
2023-05-04T17:13:43.389Z,100663.63
2023-05-04T17:16:48.848Z,100660.34
2023-05-04T17:19:56.306Z,100667.56
2023-05-04T17:23:05.136Z,100673.63
2023-05-04T17:26:11.148Z,100672.66
2023-05-04T17:29:16.549Z,100675.62
2023-05-04T17:32:22.327Z,100680.27
2023-05-04T17:35:27.672Z,100684.63
2023-05-04T17:38:34.308Z,100681.73
2023-05-04T17:41:40.316Z,100689.14
2023-05-04T17:44:45.486Z,100684.02
2023-05-04T17:47:53.544Z,100683.69
2023-05-04T17:50:59.633Z,100680.67
2023-05-04T17:54:04.376Z,100678.45
2023-05-04T17:57:10.132Z,100683.64
2023-05-04T18:00:15.908Z,100682.52
2023-05-04T18:03:21.481Z,100685.81
2023-05-04T18:06:27.076Z,100684.37
2023-05-04T18:09:31.944Z,100686.64
2023-05-04T18:12:38.168Z,100684.94
2023-05-04T18:15:44.713Z,100683.78
2023-05-04T18:18:49.789Z,100688.44
2023-05-04T18:21:56.785Z,100690.81
2023-05-04T18:25:03.266Z,100685.31
2023-05-04T18:28:08.348Z,100682.28
2023-05-04T18:31:14.500Z,100681.86
2023-05-04T18:34:19.921Z,100684.60
2023-05-04T18:37:27.014Z,100679.97
2023-05-04T18:40:33.142Z,100677.83
2023-05-04T18:43:40.094Z,100677.55
2023-05-04T18:46:45.628Z,100676.94
2023-05-04T18:49:52.316Z,100665.13
2023-05-04T18:52:59.501Z,100671.19
2023-05-04T18:56:15.825Z,100672.23
2023-05-04T18:59:21.123Z,100669.89
2023-05-04T19:02:28.691Z,100670.85
2023-05-04T19:05:34.250Z,100670.66
2023-05-04T19:08:40.395Z,100675.86
2023-05-04T19:11:46.618Z,100674.33
2023-05-04T19:14:53.390Z,100678.61
2023-05-04T19:17:59.506Z,100670.44
2023-05-04T19:21:04.937Z,100675.44
2023-05-04T19:24:10.361Z,100675.34
2023-05-04T19:27:16.579Z,100676.27
2023-05-04T19:30:23.535Z,100674.86
2023-05-04T19:33:40.473Z,100673.68
2023-05-04T19:36:29.261Z,100675.90
2023-05-04T19:39:17.012Z,100672.66
2023-05-04T19:42:08.566Z,100669.39
2023-05-04T19:45:15.875Z,100664.42
2023-05-04T19:48:23.406Z,100665.47
2023-05-04T19:51:28.782Z,100663.02
2023-05-04T19:54:33.311Z,100660.53
2023-05-04T19:57:39.851Z,100659.35
2023-05-04T20:00:44.892Z,100657.65
2023-05-04T20:03:50.889Z,100649.44
2023-05-04T20:06:57.129Z,100653.91
2023-05-04T20:10:02.910Z,100652.73
2023-05-04T20:13:08.139Z,100654.50
2023-05-04T20:16:13.911Z,100657.57
2023-05-04T20:19:18.661Z,100653.87
2023-05-04T20:22:25.309Z,100655.77
2023-05-04T20:25:31.009Z,100652.69
2023-05-04T20:28:36.477Z,100649.23
2023-05-04T20:31:41.676Z,100651.50
2023-05-04T20:34:49.480Z,100648.62
2023-05-04T20:37:54.787Z,100652.77
2023-05-04T20:41:00.060Z,100653.51
2023-05-04T20:44:05.852Z,100659.68
2023-05-04T20:47:12.762Z,100657.45
2023-05-04T20:50:18.807Z,100661.25
2023-05-04T20:53:24.184Z,100659.00
2023-05-04T20:56:22.741Z,100659.98
2023-05-04T20:59:29.060Z,100654.50
2023-05-04T21:02:34.515Z,100659.08
2023-05-04T21:05:40.148Z,100658.78
2023-05-04T21:08:46.374Z,100651.42
2023-05-04T21:11:52.942Z,100650.78
2023-05-04T21:14:52.651Z,100649.72
2023-05-04T21:17:58.800Z,100643.54
2023-05-04T21:21:04.661Z,100641.18
2023-05-04T21:24:11.473Z,100638.98
2023-05-04T21:27:17.401Z,100640.47
2023-05-04T21:30:24.204Z,100641.81
2023-05-04T21:33:29.534Z,100640.98
2023-05-04T21:36:36.149Z,100637.34
2023-05-04T21:39:43.027Z,100636.67
2023-05-04T21:42:49.421Z,100626.83
2023-05-04T21:45:54.695Z,100621.66
2023-05-04T21:49:01.160Z,100618.53
2023-05-04T21:51:59.675Z,100621.28
2023-05-04T21:54:51.918Z,100620.79
2023-05-04T21:57:58.306Z,100616.16
2023-05-04T22:01:03.260Z,100617.33
2023-05-04T22:04:09.938Z,100610.27
2023-05-04T22:07:15.971Z,100609.86
2023-05-04T22:10:22.394Z,100611.45
2023-05-04T22:13:27.941Z,100607.88
2023-05-04T22:16:33.457Z,100611.50
2023-05-04T22:19:39.761Z,100613.77
2023-05-04T22:22:38.045Z,100606.45
2023-05-04T22:25:43.885Z,100602.34
2023-05-04T22:28:49.778Z,100588.98
2023-05-04T22:31:54.786Z,100575.59
2023-05-04T22:35:01.195Z,100580.42
2023-05-04T22:38:07.845Z,100570.30
2023-05-04T22:41:13.424Z,100564.62
2023-05-04T22:44:20.047Z,100560.18
2023-05-04T22:47:26.701Z,100563.55
2023-05-04T22:50:32.424Z,100563.67
2023-05-04T22:53:31.888Z,100558.73
2023-05-04T22:56:39.239Z,100555.33
2023-05-04T22:59:44.806Z,100549.48
2023-05-04T23:02:37.334Z,100543.50
2023-05-04T23:05:44.081Z,100544.69
2023-05-04T23:08:52.592Z,100537.50
2023-05-04T23:12:00.374Z,100534.95
2023-05-04T23:15:05.869Z,100539.59
2023-05-04T23:18:11.736Z,100534.78
2023-05-04T23:21:17.321Z,100531.36
2023-05-04T23:24:22.885Z,100530.51
2023-05-04T23:27:29.457Z,100524.63
2023-05-04T23:30:35.592Z,100529.66
2023-05-04T23:33:41.097Z,100523.48
2023-05-04T23:36:46.753Z,100515.94
2023-05-04T23:39:52.347Z,100512.81
2023-05-04T23:42:58.114Z,100508.53
2023-05-04T23:46:05.154Z,100503.23
2023-05-04T23:49:10.636Z,100497.59
2023-05-04T23:52:15.594Z,100502.41
2023-05-04T23:55:21.134Z,100499.64
2023-05-04T23:58:26.789Z,100496.62
